Latest Weather Observations for Ngayawili (Elcho Island)

IDD60801

Issued at 9:01 pm CST Sunday 23 April 2017 (issued every 30 minutes, with the page automatically refreshed every 10 minutes)

About weather observations | Map of weather stations | Latest weather observations for NT | Other Formats
Station Details ID: 014517 Name: NGAYAWILI Lat: -12.00 Lon: 135.57 Height: 8.1 m
Data from the previous 72 hours. | See also: Recent months at Ngayawili (Elcho Island)
Date/Time
CST
Temp
°C
App
Temp
°C
Dew
Point
°C
Rel
Hum
%
Delta-T
°C
Wind Press
QNH
hPa
Press
MSL
hPa
Rain since
9am
mm
Dir  Spd
km/h
Gust
km/h
Spd
kts
Gust
kts
23/09:00pm 26.7 31.3 23.8 84 2.0 SSE 6 9 3 5 1012.5 1012.4 0.8
23/08:30pm 26.9 31.0 24.0 84 2.0 SE 9 15 5 8 1012.2 1012.1 0.8
23/08:00pm 26.3 31.4 24.7 91 1.1 S 6 7 3 4 1011.7 1011.6 0.8
23/07:30pm 26.6 33.3 25.4 93 0.8 CALM 0 0 0 0 1011.3 1011.2 0.8
23/07:00pm 26.8 33.1 24.8 89 1.4 CALM 0 0 0 0 1011.2 1011.1 0.8
23/06:30pm 27.5 33.8 24.7 85 2.0 CALM 0 0 0 0 1010.4 1010.3 0.8
23/06:00pm 27.5 32.6 24.9 86 1.8 E 7 13 4 7 1010.4 1010.3 0.8
23/05:30pm 27.8 34.8 25.8 89 1.4 CALM 0 0 0 0 1010.0 1009.9 0.8
23/05:00pm 27.6 34.2 25.2 87 1.7 CALM 0 0 0 0 1009.6 1009.5 0.8
23/04:30pm 27.7 33.0 24.9 85 2.0 S 6 11 3 6 1009.6 1009.5 0.8
23/04:00pm 27.9 32.7 25.1 85 2.0 E 9 13 5 7 1009.1 1009.0 0.8
23/03:30pm 26.5 31.3 25.1 92 1.0 E 9 15 5 8 1009.4 1009.3 0.8
23/03:00pm 27.2 28.1 22.6 76 3.1 ESE 22 39 12 21 1009.7 1009.6 0.0
23/02:30pm 32.0 34.9 23.8 62 5.7 E 15 24 8 13 1009.4 1009.3 0.0
23/02:00pm 31.4 33.9 23.8 64 5.3 ESE 17 28 9 15 1009.7 1009.6 0.0
23/01:30pm 31.1 33.3 24.0 66 4.9 ESE 19 28 10 15 1010.2 1010.1 0.0
23/01:00pm 31.7 35.7 25.1 68 4.7 ESE 13 22 7 12 1010.5 1010.4 0.0
23/12:30pm 30.5 32.6 23.7 67 4.7 ESE 19 30 10 16 1010.5 1010.4 0.0
23/12:00pm 30.2 32.0 23.6 67 4.6 ESE 20 33 11 18 1011.0 1010.9 0.0
23/11:30am 30.2 33.1 24.4 71 4.0 ESE 17 28 9 15 1011.4 1011.3 0.0
23/11:00am 29.3 31.7 24.2 74 3.5 E 19 28 10 15 1012.0 1011.9 0.0
23/10:30am 29.5 32.1 24.6 75 3.4 E 19 32 10 17 1012.2 1012.1 0.0
23/10:00am 28.5 31.9 24.1 77 3.0 ESE 13 26 7 14 1012.0 1011.9 0.0
23/09:30am 28.8 31.1 24.1 76 3.3 ESE 19 32 10 17 1011.9 1011.8 0.0
23/09:00am 28.6 31.3 24.2 77 3.1 ESE 17 26 9 14 1011.9 1011.8 0.2
23/08:30am 27.6 31.0 24.6 84 2.1 SE 15 28 8 15 1011.4 1011.3 0.2
23/08:00am 26.6 31.6 25.4 93 0.8 ESE 9 17 5 9 1011.3 1011.2 0.2
23/07:30am 25.3 30.6 25.0 98 0.2 SE 6 9 3 5 1011.1 1011.0 0.2
23/07:00am 24.5 29.4 24.3 99 0.1 SE 6 9 3 5 1010.8 1010.7 0.2
23/06:30am 24.4 29.2 24.2 99 0.1 SE 6 11 3 6 1010.3 1010.2 0.2
23/06:00am 24.4 28.3 24.2 99 0.1 SSE 11 15 6 8 1009.8 1009.7 0.2
23/05:30am 24.4 28.7 24.2 99 0.1 SSE 9 15 5 8 1009.6 1009.5 0.2
23/05:00am 24.5 28.4 24.2 98 0.2 SSE 11 15 6 8 1009.6 1009.5 0.2
23/04:30am 24.5 28.4 24.2 98 0.2 SSE 11 15 6 8 1009.6 1009.5 0.2
23/04:00am 24.6 28.2 24.3 98 0.2 SSE 13 17 7 9 1009.4 1009.3 0.2
23/03:30am 24.6 28.5 24.3 98 0.2 SSE 11 15 6 8 1009.5 1009.4 0.2
23/03:00am 24.6 28.5 24.3 98 0.2 SSE 11 15 6 8 1009.8 1009.7 0.2
23/02:30am 24.7 29.1 24.4 98 0.2 SSE 9 13 5 7 1010.1 1010.0 0.2
23/02:00am 24.9 29.1 24.7 99 0.1 SSE 11 15 6 8 1010.3 1010.2 0.2
23/01:30am 24.8 29.2 24.5 98 0.2 SE 9 13 5 7 1010.7 1010.6 0.2
23/01:00am 24.7 29.5 24.4 98 0.2 SSE 7 13 4 7 1010.9 1010.8 0.2
23/12:30am 24.9 29.8 24.6 98 0.2 SSE 7 9 4 5 1011.2 1011.1 0.2
23/12:00am 25.0 29.8 24.5 97 0.3 SSE 7 11 4 6 1011.4 1011.3 0.2
 
Date/Time
CST
Temp
°C
App
Temp
°C
Dew
Point
°C
Rel
Hum
%
Delta-T
°C
Wind Press
QNH
hPa
Press
MSL
hPa
Rain since
9am
mm
Dir  Spd
km/h
Gust
km/h
Spd
kts
Gust
kts
22/11:30pm 25.1 29.9 24.4 96 0.5 SSE 7 11 4 6 1011.6 1011.5 0.2
22/11:00pm 25.4 29.8 24.5 95 0.6 S 9 13 5 7 1011.8 1011.7 0.2
22/10:30pm 25.6 31.8 24.6 94 0.7 CALM 0 6 0 3 1012.0 1011.9 0.2
22/10:00pm 25.9 30.3 24.5 92 1.0 SSE 9 13 5 7 1011.8 1011.7 0.2
22/09:30pm 26.2 31.4 24.8 92 1.0 SE 6 11 3 6 1011.8 1011.7 0.2
22/09:00pm 26.7 31.0 24.9 90 1.3 SSE 11 15 6 8 1011.7 1011.6 0.2
22/08:30pm 26.4 31.3 24.6 90 1.2 SE 7 13 4 7 1011.6 1011.5 0.2
22/08:00pm 26.7 31.1 24.5 88 1.5 SSE 9 13 5 7 1011.5 1011.4 0.2
22/07:30pm 26.7 31.6 24.4 87 1.6 SE 6 9 3 5 1011.0 1010.9 0.2
22/07:00pm 26.8 31.1 24.3 86 1.7 ESE 9 15 5 8 1010.6 1010.5 0.2
22/06:30pm 27.0 31.5 24.6 87 1.7 SE 9 15 5 8 1010.4 1010.3 0.2
22/06:00pm 27.5 31.9 24.4 83 2.2 E 9 15 5 8 1010.2 1010.1 0.2
22/05:30pm 28.6 30.2 23.9 75 3.2 ENE 22 39 12 21 1009.9 1009.8 0.2
22/05:00pm 29.6 32.1 23.8 71 4.0 ENE 17 24 9 13 1009.1 1009.0 0.2
22/04:30pm 29.8 32.4 24.0 71 4.0 ENE 17 35 9 19 1009.0 1008.9 0.2
22/04:00pm 30.6 32.9 24.5 70 4.3 NE 20 37 11 20 1008.8 1008.7 0.2
22/03:30pm 31.5 34.4 24.4 66 5.0 NNE 17 26 9 14 1008.9 1008.8 0.2
22/03:00pm 31.5 35.2 23.9 64 5.3 NNE 11 19 6 10 1009.0 1008.9 0.2
22/02:30pm 31.6 34.2 22.6 59 6.2 ENE 13 26 7 14 1009.2 1009.1 0.2
22/02:00pm 31.5 35.4 23.6 63 5.5 E 9 15 5 8 1009.5 1009.4 0.2
22/01:30pm 31.6 35.2 23.7 63 5.5 E 11 20 6 11 1009.9 1009.8 0.2
22/01:00pm 31.4 34.7 23.8 64 5.3 ESE 13 20 7 11 1010.3 1010.2 0.2
22/12:30pm 30.8 33.4 22.7 62 5.5 ESE 13 20 7 11 1010.7 1010.6 0.2
22/12:00pm 30.5 32.1 22.1 61 5.7 ESE 17 24 9 13 1011.1 1011.0 0.2
22/11:30am 30.3 32.7 22.2 62 5.5 E 13 24 7 13 1011.7 1011.6 0.2
22/11:00am 29.9 32.6 22.1 63 5.3 ESE 11 17 6 9 1012.2 1012.1 0.2
22/10:30am 29.4 31.9 23.1 69 4.3 ESE 15 20 8 11 1012.6 1012.5 0.2
22/10:00am 29.0 31.8 23.0 70 4.1 SE 13 22 7 12 1012.8 1012.7 0.0
22/09:30am 28.6 31.9 23.9 75 3.2 SE 13 20 7 11 1012.6 1012.5 0.0
22/09:00am 27.7 31.9 24.1 81 2.5 ESE 9 15 5 8 1012.5 1012.4 0.2
22/08:30am 27.3 31.9 24.7 86 1.8 ESE 9 15 5 8 1012.2 1012.1 0.2
22/08:00am 26.3 32.9 25.3 94 0.7 CALM 0 7 0 4 1011.9 1011.8 0.2
22/07:30am 25.1 31.5 24.9 99 0.1 CALM 0 9 0 5 1011.7 1011.6 0.2
22/07:00am 24.3 28.6 24.3 100 0.0 SE 9 11 5 6 1011.2 1011.1 0.2
22/06:30am 24.0 28.6 23.8 99 0.1 SE 6 9 3 5 1010.7 1010.6 0.2
22/06:00am 24.1 28.6 23.9 99 0.1 SE 7 11 4 6 1010.2 1010.1 0.2
22/05:30am 24.2 28.3 24.0 99 0.1 SE 9 13 5 7 1009.9 1009.8 0.2
22/05:00am 24.3 28.9 24.1 99 0.1 SE 7 11 4 6 1010.0 1009.9 0.2
22/04:30am 24.3 29.1 24.1 99 0.1 SSE 6 9 3 5 1009.9 1009.8 0.2
22/04:00am 24.5 29.2 24.3 99 0.1 SE 7 11 4 6 1009.8 1009.7 0.2
22/03:30am 24.5 28.8 24.2 98 0.2 SE 9 11 5 6 1009.9 1009.8 0.2
22/03:00am 24.6 29.3 24.3 98 0.2 SE 7 9 4 5 1010.0 1009.9 0.2
22/02:30am 24.7 29.1 24.4 98 0.2 SE 9 13 5 7 1010.2 1010.1 0.2
22/02:00am 24.6 28.8 24.1 97 0.3 SE 9 11 5 6 1010.6 1010.5 0.2
22/01:30am 24.6 29.3 23.9 96 0.5 SE 6 7 3 4 1011.0 1010.9 0.2
22/01:00am 24.8 29.3 23.9 95 0.6 SE 7 9 4 5 1011.5 1011.4 0.2
22/12:30am 25.2 29.8 24.2 94 0.7 SE 7 9 4 5 1012.0 1011.9 0.2
22/12:00am 25.4 30.0 24.2 93 0.8 SE 7 9 4 5 1012.2 1012.1 0.2
 
Date/Time
CST
Temp
°C
App
Temp
°C
Dew
Point
°C
Rel
Hum
%
Delta-T
°C
Wind Press
QNH
hPa
Press
MSL
hPa
Rain since
9am
mm
Dir  Spd
km/h
Gust
km/h
Spd
kts
Gust
kts
21/11:30pm 25.6 29.9 24.2 92 1.0 ESE 9 9 5 5 1012.3 1012.2 0.2
21/11:00pm 26.0 30.6 24.2 90 1.2 ESE 7 11 4 6 1012.4 1012.3 0.2
21/10:30pm 26.1 30.9 24.5 91 1.1 SE 7 7 4 4 1012.5 1012.4 0.2
21/10:00pm 26.3 31.4 24.9 92 1.0 SE 7 9 4 5 1012.6 1012.5 0.2
21/09:30pm 26.3 31.4 24.9 92 1.0 ESE 7 9 4 5 1012.6 1012.5 0.2
21/09:00pm 26.3 31.4 24.9 92 1.0 ESE 7 11 4 6 1012.4 1012.3 0.2
21/08:30pm 26.2 31.3 25.0 93 0.8 ESE 7 9 4 5 1012.3 1012.2 0.2
21/08:00pm 26.3 31.0 24.9 92 1.0 E 9 15 5 8 1011.9 1011.8 0.2
21/07:30pm 27.2 30.8 24.3 84 2.0 ENE 13 26 7 14 1011.2 1011.1 0.0
21/07:00pm 26.9 31.4 24.0 84 2.0 ENE 7 11 4 6 1010.6 1010.5 0.0
21/06:30pm 27.1 32.9 24.0 83 2.1 CALM 0 0 0 0 1010.4 1010.3 0.0
21/06:00pm 28.0 32.5 24.0 79 2.8 ENE 7 13 4 7 1010.3 1010.2 0.0
21/05:30pm 28.6 34.7 24.4 78 2.9 CALM 0 6 0 3 1010.1 1010.0 0.0
21/05:00pm 29.2 34.6 24.5 76 3.3 ENE 4 11 2 6 1009.7 1009.6 0.0
21/04:30pm 29.5 35.3 23.9 72 3.9 CALM 0 0 0 0 1009.6 1009.5 0.0
21/04:00pm 29.7 33.5 23.4 69 4.3 ESE 9 13 5 7 1009.5 1009.4 0.0
21/03:30pm 30.1 33.7 23.0 65 4.9 ESE 9 15 5 8 1009.5 1009.4 0.0
21/03:00pm 30.1 33.3 23.0 65 4.9 E 11 20 6 11 1009.9 1009.8 0.0
21/02:30pm 30.2 32.9 23.4 67 4.7 ENE 15 20 8 11 1010.2 1010.1 0.0
21/02:00pm 30.6 33.4 23.0 64 5.2 E 13 20 7 11 1010.6 1010.5 0.0
21/01:30pm 30.1 32.5 23.0 65 4.9 ESE 15 22 8 12 1010.9 1010.8 0.0
21/01:00pm 29.8 31.9 22.5 65 5.0 ESE 15 24 8 13 1011.1 1011.0 0.0
21/12:30pm 30.0 31.7 22.4 63 5.2 ESE 17 26 9 14 1011.4 1011.3 0.0
21/12:00pm 31.1 33.9 23.7 64 5.1 ESE 15 26 8 14 1011.8 1011.7 0.0
21/11:30am 30.2 32.0 22.6 63 5.2 E 17 24 9 13 1012.2 1012.1 0.0
21/11:00am 30.3 33.5 24.4 70 4.1 SE 15 24 8 13 1012.4 1012.3 0.0
21/10:30am 29.4 31.4 22.9 68 4.4 ESE 17 28 9 15 1012.5 1012.4 0.0
21/10:00am 28.7 32.1 24.0 76 3.3 ESE 13 20 7 11 1012.8 1012.7 0.0
21/09:30am 28.4 33.0 25.4 84 2.1 SE 11 19 6 10 1012.8 1012.7 0.0
21/09:00am 26.7 32.0 25.8 95 0.6 SE 9 13 5 7 1012.6 1012.5 0.0
21/08:30am 26.1 31.9 26.1 100 0.0 SSE 7 11 4 6 1012.4 1012.3 0.0
21/08:00am 25.4 30.8 25.4 100 0.0 SSE 7 11 4 6 1012.2 1012.1 0.0
21/07:30am 24.9 30.2 24.9 100 0.0 SSE 6 11 3 6 1012.1 1012.0 0.0
21/07:00am 24.0 28.5 24.0 100 0.0 SSE 7 7 4 4 1011.6 1011.5 0.0
21/06:30am 24.1 28.7 24.1 100 0.0 SSE 7 9 4 5 1011.3 1011.2 0.0
21/06:00am 24.2 28.8 24.2 100 0.0 SSE 7 9 4 5 1011.0 1010.9 0.0
21/05:30am 24.3 29.0 24.3 100 0.0 SSE 7 9 4 5 1010.8 1010.7 0.0
21/05:00am 24.4 29.2 24.2 99 0.1 SSE 6 9 3 5 1010.6 1010.5 0.0
21/04:30am 24.6 29.5 24.4 99 0.1 SSE 6 9 3 5 1010.6 1010.5 0.0
21/04:00am 24.8 29.3 24.6 99 0.1 S 9 11 5 6 1010.4 1010.3 0.0
21/03:30am 24.8 30.9 24.5 98 0.2 CALM 0 0 0 0 1010.4 1010.3 0.0
21/03:00am 24.9 30.0 24.6 98 0.2 SE 6 9 3 5 1010.6 1010.5 0.0
21/02:30am 24.8 29.6 24.5 98 0.2 SE 7 9 4 5 1010.7 1010.6 0.0
21/02:00am 24.7 30.2 24.0 96 0.5 ESE 2 7 1 4 1010.8 1010.7 0.0
21/01:30am 24.9 30.7 24.0 95 0.6 CALM 0 0 0 0 1011.3 1011.2 0.0
21/01:00am 25.4 31.2 24.0 92 1.0 CALM 0 0 0 0 1011.7 1011.6 0.0
21/12:30am 26.0 32.0 24.2 90 1.2 CALM 0 0 0 0 1012.1 1012.0 0.0
21/12:00am 26.3 30.9 24.2 88 1.4 ESE 7 9 4 5 1012.6 1012.5 0.0
 
Date/Time
CST
Temp
°C
App
Temp
°C
Dew
Point
°C
Rel
Hum
%
Delta-T
°C
Wind Press
QNH
hPa
Press
MSL
hPa
Rain since
9am
mm
Dir  Spd
km/h
Gust
km/h
Spd
kts
Gust
kts
20/11:30pm 26.6 30.9 24.3 87 1.6 ESE 9 15 5 8 1012.9 1012.8 0.0
20/11:00pm 26.4 30.9 24.6 90 1.2 ESE 9 13 5 7 1013.1 1013.0 0.0
20/10:30pm 26.3 31.4 24.9 92 1.0 ESE 7 9 4 5 1013.4 1013.3 0.0
20/10:00pm 26.5 31.6 24.9 91 1.1 E 7 11 4 6 1013.4 1013.3 0.0
20/09:30pm 26.5 31.8 24.9 91 1.1 E 6 9 3 5 1013.3 1013.2 0.0

Other Formats:

Comma delimited format used in spreadsheet applications
http://www.bom.gov.au/fwo/IDD60801/IDD60801.95146.axf

JavaScript Object Notation format (JSON) in row-major order
http://www.bom.gov.au/fwo/IDD60801/IDD60801.95146.json